Flight Track Log - Related Links

Times and Time Zones

All times are in EST time to prevent confusion due to time zone crossing. See the N789EX flight status page for this flight to view local times or setup timezone preferences in your user account.


Time Position Orientation Groundspeed Altitude Reporting Facility
EST Latitude Longitude Course Direction KTS MPH feet Rate Location/Type
Sun 04:51:37 PM 47.2631 -119.3614 230° Southwest 195 224 3,200  Level Seattle Center
Sun 04:52:38 PM 47.2281 -119.4419 237° Southwest 264 304 5,500 957 Climbing Seattle Center
Sun 04:57:00 PM 47.2282 -119.4818 230° Southwest  Level Estimated
Sun 04:58:31 PM 46.8910 -119.7600 237° Southwest 319 367 9,800  Level FlightAware ADS-B
Sun 04:58:50 PM 46.8720 -119.7240 128° Southeast 317 365 9,800  Level FlightAware ADS-B
Sun 04:59:28 PM 46.8420 -119.6700 129° Southeast 317 365 9,800  Level FlightAware ADS-B
Sun 04:59:53 PM 46.8230 -119.6340 128° Southeast 317 365 9,800  Level FlightAware ADS-B
Sun 05:00:28 PM 46.7810 -119.5640 131° Southeast 321 369 9,800  Level FlightAware ADS-B
Sun 05:00:50 PM 46.7640 -119.5310 127° Southeast 323 372 9,800  Level FlightAware ADS-B
Sun 05:01:17 PM 46.7440 -119.4900 125° Southeast 323 372 9,800  Level FlightAware ADS-B
Sun 05:01:53 PM 46.7180 -119.4350 125° Southeast 323 372 9,800  Level FlightAware ADS-B
Sun 05:02:18 PM 46.7000 -119.3970 125° Southeast 323 372 9,800  Level FlightAware ADS-B
Sun 05:02:42 PM 46.6820 -119.3610 126° Southeast 323 372 9,800 132 Level FlightAware ADS-B
Sun 05:03:49 PM 46.6469 -119.1869 126° Southeast 320 368 10,000 94 Climbing Seattle Center
Sun 05:04:50 PM 46.6058 -119.0694 117° Southeast 326 375 10,000  Level Seattle Center
Sun 05:05:51 PM 46.5642 -118.9550 118° Southeast 321 369 10,000 -49 Level Seattle Center
Sun 05:06:52 PM 46.5194 -118.8339 118° Southeast 332 382 9,900  Descending Seattle Center
Sun 05:07:53 PM 46.4714 -118.7031 118° Southeast 365 420 10,000 49 Climbing Seattle Center
Sun 05:08:54 PM 46.4231 -118.5717 118° Southeast 371 427 10,000 -49 Level Seattle Center
Sun 05:09:55 PM 46.3683 -118.4258 118° Southeast 371 427 9,900 -98 Descending Seattle Center
Sun 05:10:56 PM 46.3244 -118.3131 119° Southeast 368 423 9,800  Descending Seattle Center
Sun 05:11:57 PM 46.2764 -118.1853 119° Southeast 365 420 9,900 99 Climbing Seattle Center
Sun 05:12:57 PM 46.2275 -118.0569 119° Southeast 367 422 10,000 50 Climbing Seattle Center
Sun 05:13:58 PM 46.1781 -117.9297 119° Southeast 367 422 10,000  Level Seattle Center
Sun 05:14:59 PM 46.1264 -117.8022 120° Southeast 369 425 10,000 -49 Level Seattle Center
Sun 05:16:00 PM 46.0639 -117.6564 122° Southeast 360 414 9,900 -49 Descending Seattle Center
Sun 05:17:01 PM 46.0103 -117.5322 122° Southeast 364 419 9,900  Level Seattle Center
Sun 05:18:02 PM 45.9567 -117.4100 122° Southeast 363 418 9,900  Level Seattle Center
Sun 05:19:03 PM 45.9936 -117.3136 61° Northeast 387 445 9,900 49 Level Seattle Center
Sun 05:20:04 PM 46.0211 -117.4308 289° West 332 382 10,000  Climbing Seattle Center
Sun 05:21:05 PM 46.0372 -117.5564 281° West 321 369 9,900  Descending Seattle Center
Sun 05:22:06 PM 46.0528 -117.6803 280° West 317 365 10,000  Climbing Seattle Center
Sun 05:23:07 PM 46.0936 -117.7933 298° West 324 373 9,900 -50 Descending Seattle Center
Sun 05:24:07 PM 46.1364 -117.8939 302° West 298 343 9,900 -50 Level Seattle Center
Sun 05:25:08 PM 46.1714 -117.9853 299° West 267 307 9,800  Descending Seattle Center
Sun 05:26:09 PM 46.2053 -118.0728 299° West 253 291 9,900 -49 Climbing Seattle Center
Sun 05:27:10 PM 46.2422 -118.1575 302° West 251 289 9,700 98 Descending Seattle Center
Sun 05:28:11 PM 46.2819 -118.2425 304° West 254 292 10,100 98 Climbing Seattle Center
Sun 05:29:12 PM 46.3278 -118.3211 310° West 257 296 9,900 -50 Descending Seattle Center
Sun 05:30:12 PM 46.3739 -118.3969 311° West 250 288 10,000 -50 Climbing Seattle Center
Sun 05:31:13 PM 46.4197 -118.5025 302° West 256 295 9,800 -98 Descending Seattle Center
Sun 05:32:14 PM 46.4553 -118.5908 300° West 255 293 9,800 -98 Level Seattle Center
Sun 05:33:15 PM 46.4933 -118.6758 303° West 252 290 9,600 98 Descending Seattle Center
Sun 05:34:16 PM 46.5311 -118.7592 303° West 249 287 10,000 98 Climbing Seattle Center
Sun 05:35:17 PM 46.5656 -118.8492 299° West 255 293 9,800  Descending Seattle Center
Sun 05:36:17 PM 46.5978 -118.9317 300° West 247 284 10,000 99 Climbing Seattle Center
Sun 05:37:18 PM 46.6422 -119.0128 309° West 257 296 10,000  Level Seattle Center
Sun 05:38:19 PM 46.6872 -119.0908 310° West 263 303 10,000 -98 Level Seattle Center
Sun 05:39:20 PM 46.7203 -119.1803 298° West 253 291 9,800  Descending Seattle Center
Sun 05:40:21 PM 46.7686 -119.2750 307° West 258 297 10,000 148 Climbing Seattle Center
Sun 05:41:22 PM 46.8017 -119.3561 301° West 259 298 10,100  Climbing Seattle Center
Sun 05:42:22 PM 46.8772 -119.3181 19° North 364 419 10,000 -50 Descending Seattle Center
Sun 05:43:23 PM 46.8258 -119.1781 118° Southeast 426 490 10,000  Level Seattle Center
Sun 05:44:24 PM 46.7306 -119.0364 134° Southeast 424 488 10,000 -49 Level Seattle Center
Sun 05:45:25 PM 46.6556 -118.9042 130° Southeast 423 487 9,900 -98 Descending Seattle Center
Sun 05:46:26 PM 46.5786 -118.7681 129° Southeast 422 486 9,800 49 Descending Seattle Center
Sun 05:47:27 PM 46.5039 -118.6375 130° Southeast 417 480 10,000 248 Climbing Seattle Center
Sun 05:48:27 PM 46.4306 -118.5106 130° Southeast 413 475 10,300 99 Climbing Seattle Center
Sun 05:49:28 PM 46.3547 -118.3822 131° Southeast 420 483 10,200 -148 Descending Seattle Center
Sun 05:50:29 PM 46.2856 -118.2453 126° Southeast 423 487 10,000 -98 Descending Seattle Center
Sun 05:51:30 PM 46.2233 -118.0992 122° Southeast 430 495 10,000 -49 Level Seattle Center
Sun 05:52:31 PM 46.1642 -117.9494 120° Southeast 432 497 9,900 -50 Descending Seattle Center
Sun 05:53:31 PM 46.1050 -117.8033 120° Southeast 424 488 9,900 50 Level Seattle Center
Sun 05:54:32 PM 46.0039 -117.7842 172° South 404 465 10,000 98 Climbing Seattle Center
Sun 05:55:33 PM 45.9878 -117.9236 261° West 389 448 10,100  Climbing Seattle Center
Sun 05:56:34 PM 46.0689 -118.0300 318° Northwest 398 458 10,000  Descending Seattle Center
Sun 05:57:35 PM 46.1503 -118.1350 318° Northwest 395 455 10,100 50 Climbing Seattle Center
Sun 05:58:35 PM 46.2322 -118.2397 319° Northwest 394 453 10,100  Level Seattle Center
Sun 05:59:36 PM 46.3150 -118.3444 319° Northwest 396 456 10,100 -17 Level Seattle Center
Sun 06:04:33 PM 46.5960 -119.0370 319° Northwest 387 445 10,000 -18 Descending FlightAware ADS-B
Sun 06:05:13 PM 46.6250 -119.1140 299° West 387 445 10,000  Level FlightAware ADS-B
Sun 06:05:37 PM 46.6430 -119.1610 299° West 387 445 10,000  Level FlightAware ADS-B
Sun 06:06:01 PM 46.6610 -119.2080 299° West 387 445 10,000  Level FlightAware ADS-B
Sun 06:06:25 PM 46.6780 -119.2540 298° West 387 445 10,000 1,575 Level FlightAware ADS-B
Sun 06:07:21 PM 46.7360 -119.3890 302° West 302 348 12,100 2,147 Climbing FlightAware ADS-B
Sun 06:08:14 PM 46.7740 -119.4870 300° West 327 376 13,900 2,214 Climbing FlightAware ADS-B
Sun 06:09:04 PM 46.8130 -119.5830 301° West 331 381 15,900 2,268 Climbing FlightAware ADS-B
Sun 06:09:36 PM 46.8370 -119.6460 299° West 339 390 17,000 2,034 Climbing FlightAware ADS-B
Sun 06:10:03 PM 46.8600 -119.6970 303° West 350 403 17,900 2,105 Climbing FlightAware ADS-B
Sun 06:10:33 PM 46.9060 -119.7260 337° Northwest 383 441 19,000 1,966 Climbing FlightAware ADS-B
Sun 06:11:01 PM 46.9540 -119.6980 22° Northeast 420 483 19,800 1,474 Climbing FlightAware ADS-B
Sun 06:11:30 PM 46.9800 -119.6270 62° Northeast 436 502 20,400 1,417 Climbing FlightAware ADS-B
Sun 06:12:13 PM 46.9490 -119.5150 112° Southeast 414 476 21,500 1,782 Climbing FlightAware ADS-B
Sun 06:13:11 PM 46.8560 -119.4300 148° Southeast 406 467 23,400 1,946 Climbing FlightAware ADS-B
Sun 06:14:04 PM 46.7740 -119.3540 148° Southeast 400 460 25,100 1,600 Climbing FlightAware ADS-B
Sun 06:14:56 PM 46.7030 -119.2560 137° Southeast 417 480 26,200 1,357 Climbing FlightAware ADS-B
Sun 06:15:28 PM 46.6650 -119.1840 128° Southeast 419 482 27,000 1,433 Climbing FlightAware ADS-B
Sun 06:16:03 PM 46.6240 -119.1060 127° Southeast 416 479 27,800 1,161 Climbing FlightAware ADS-B
Sun 06:17:01 PM 46.5650 -118.9700 122° Southeast 422 486 28,800 714 Climbing FlightAware ADS-B
Sun 06:17:27 PM 46.5380 -118.9040 121° Southeast 429 494 28,800 343 Level FlightAware ADS-B
Sun 06:18:11 PM 46.4930 -118.7960 121° Southeast 439 505 29,200 692 Climbing FlightAware ADS-B
Sun 06:19:11 PM 46.4340 -118.6390 119° Southeast 442 509 30,000 429 Climbing FlightAware ADS-B
Sun 06:20:03 PM 46.3850 -118.5050 118° Southeast 437 503 30,000 -57 Level FlightAware ADS-B
Sun 06:20:57 PM 46.3350 -118.3680 118° Southeast 437 503 29,900 -106 Descending FlightAware ADS-B
Sun 06:21:56 PM 46.2840 -118.2070 115° Southeast 441 507 29,800 69 Descending FlightAware ADS-B
Sun 06:22:24 PM 46.2620 -118.1340 114° Southeast 436 502 30,000 70 Climbing FlightAware ADS-B
Sun 06:23:22 PM 46.2060 -117.9830 118° Southeast 434 499 29,900  Descending FlightAware ADS-B
Sun 06:23:59 PM 46.1700 -117.8940 120° Southeast 436 502 30,000 132 Climbing FlightAware ADS-B
Sun 06:24:53 PM 46.1150 -117.7450 118° Southeast 456 525 30,100 67 Climbing FlightAware ADS-B
Sun 06:25:29 PM 46.0830 -117.6510 116° Southeast 455 524 30,100 -125 Level FlightAware ADS-B
Sun 06:26:29 PM 46.0290 -117.4850 115° Southeast 454 522 29,900 -54 Descending FlightAware ADS-B
Sun 06:27:21 PM 45.9810 -117.3430 116° Southeast 462 532 30,000 135 Climbing FlightAware ADS-B
Sun 06:27:58 PM 45.9430 -117.2420 118° Southeast 476 548 30,100 197 Climbing FlightAware ADS-B
Sun 06:28:22 PM 45.9250 -117.1830 114° Southeast 483 556 30,200 -107 Climbing FlightAware ADS-B
Sun 06:28:54 PM 45.9360 -117.0730 82° East 480 552 30,000 -82 Descending FlightAware ADS-B
Sun 06:29:35 PM 46.0060 -117.0120 31° Northeast 446 513 30,100  Climbing FlightAware ADS-B
Sun 06:30:01 PM 46.0570 -117.0340 343° North 414 476 30,000 -79 Descending FlightAware ADS-B
Sun 06:30:51 PM 46.0940 -117.1490 295° West 388 447 30,000 111 Level FlightAware ADS-B
Sun 06:31:49 PM 46.1190 -117.2940 284° West 389 448 30,200 126 Climbing FlightAware ADS-B
Sun 06:32:26 PM 46.1330 -117.3880 282° West 388 447 30,200 -261 Level FlightAware ADS-B
Sun 06:32:58 PM 46.1430 -117.4720 280° West 386 444 29,900 -128 Descending FlightAware ADS-B
Sun 06:34:00 PM 46.1660 -117.6220 283° West 394 453 30,000 67 Climbing FlightAware ADS-B
Sun 06:34:28 PM 46.1770 -117.7000 282° West 409 471 30,000 78 Level FlightAware ADS-B
Sun 06:35:17 PM 46.2020 -117.8350 285° West 426 490 30,100  Climbing FlightAware ADS-B
Sun 06:35:44 PM 46.2150 -117.9070 285° West 424 488 30,000 -145 Descending FlightAware ADS-B
Sun 06:36:40 PM 46.2430 -118.0600 285° West 422 486 29,900  Descending FlightAware ADS-B
Sun 06:37:32 PM 46.2660 -118.2040 283° West 417 480 30,000 120 Climbing FlightAware ADS-B
Sun 06:38:20 PM 46.3000 -118.3270 292° West 423 487 30,100 56 Climbing FlightAware ADS-B
Sun 06:39:20 PM 46.3610 -118.4730 301° West 441 507 30,100  Level FlightAware ADS-B
Sun 06:39:53 PM 46.3960 -118.5570 301° West 447 514 30,100  Level FlightAware ADS-B
Sun 06:40:29 PM 46.4350 -118.6520 301° West 447 514 30,100  Level FlightAware ADS-B
Sun 06:40:58 PM 46.4640 -118.7270 299° West 444 511 30,100 -154 Level FlightAware ADS-B
Sun 06:41:47 PM 46.5100 -118.8570 297° West 445 512 29,900  Descending FlightAware ADS-B
Sun 06:42:48 PM 46.5690 -119.0160 298° West 458 527 30,100 104 Climbing FlightAware ADS-B
Sun 06:43:42 PM 46.6230 -119.1660 298° West 454 522 30,100 -111 Level FlightAware ADS-B
Sun 06:44:36 PM 46.6720 -119.3150 296° West 458 527 29,900  Descending FlightAware ADS-B
Sun 06:45:20 PM 46.7110 -119.4350 295° West 456 525 30,100 148 Climbing FlightAware ADS-B
Sun 06:45:57 PM 46.7420 -119.5410 293° West 455 524 30,100 -65 Level FlightAware ADS-B
Sun 06:46:53 PM 46.7860 -119.6990 292° West 455 524 30,000 -58 Descending FlightAware ADS-B
Sun 06:47:41 PM 46.8210 -119.8370 290° West 446 513 30,000 -85 Level FlightAware ADS-B
Sun 06:48:04 PM 46.8490 -119.8940 306° West 440 506 29,900 -638 Descending FlightAware ADS-B
Sun 06:48:28 PM 46.8790 -119.9470 310° West 418 481 29,500 -906 Descending FlightAware ADS-B
Sun 06:48:57 PM 46.8950 -120.0200 288° West 395 455 29,100 -1,881 Descending FlightAware ADS-B
Sun 06:49:35 PM 46.9080 -120.1220 281° West 401 461 27,400 -3,253 Descending FlightAware ADS-B
Sun 06:50:20 PM 46.9240 -120.2390 281° West 391 450 24,600 -2,020 Descending FlightAware ADS-B
Sun 06:51:16 PM 46.9450 -120.3860 282° West 396 456 24,000 -367 Descending FlightAware ADS-B
Sun 06:51:58 PM 46.9600 -120.4950 281° West 400 460 24,000  Level FlightAware ADS-B
Sun 06:52:53 PM 46.9810 -120.6440 282° West 400 460 24,000 -1,200 Level FlightAware ADS-B
Sun 06:53:43 PM 47.0000 -120.7750 282° West 404 465 21,900 -3,303 Descending FlightAware ADS-B
Sun 06:54:42 PM 47.0190 -120.9290 280° West 397 457 18,000 -3,724 Descending FlightAware ADS-B
Sun 06:55:10 PM 47.0260 -121.0030 278° West 380 437 16,500 -2,325 Descending FlightAware ADS-B
Sun 06:56:02 PM 47.0380 -121.1260 278° West 314 361 14,900 -2,139 Descending FlightAware ADS-B
Sun 06:57:05 PM 47.0500 -121.2490 278° West 284 327 12,400 -2,333 Descending FlightAware ADS-B
Sun 06:57:32 PM 47.0540 -121.2980 277° West 273 314 11,400 -1,091 Descending FlightAware ADS-B
Sun 06:58:33 PM 47.0640 -121.4070 278° West 264 304 10,800 -383 Descending FlightAware ADS-B
Sun 06:59:06 PM 47.0700 -121.4660 279° West 268 308 10,800  Level FlightAware ADS-B
Sun 06:59:54 PM 47.0810 -121.5430 282° West 269 310 10,800  Level FlightAware ADS-B
Sun 07:00:11 PM 47.1000 -121.5710 315° West 275 316 10,800 -1,119 Level FlightAware ADS-B
Sun 07:00:53 PM 47.1310 -121.6380 304° West 270 311 9,700 -1,826 Descending FlightAware ADS-B
Sun 07:01:20 PM 47.1480 -121.6710 307° West 270 311 8,700 -2,200 Descending FlightAware ADS-B
Sun 07:01:53 PM 47.1750 -121.7210 308° West 260 299 7,500 -2,118 Descending FlightAware ADS-B
Sun 07:02:11 PM 47.1900 -121.7480 309° West 251 289 6,900 -1,846 Descending FlightAware ADS-B
Sun 07:02:45 PM 47.2130 -121.7910 308° West 238 274 5,900 -1,138 Descending FlightAware ADS-B
Sun 07:03:09 PM 47.2280 -121.8170 310° West 207 238 5,800 -113 Descending FlightAware ADS-B
Sun 07:03:38 PM 47.2410 -121.8500 300° West 194 223 5,800  Level FlightAware ADS-B
Sun 07:04:06 PM 47.2380 -121.8870 263° West 191 220 5,800  Level FlightAware ADS-B
Sun 07:04:36 PM 47.2340 -121.9220 260° West 191 220 5,800 -231 Level FlightAware ADS-B
Sun 07:04:58 PM 47.2300 -121.9510 259° West 184 212 5,600 -1,200 Descending FlightAware ADS-B
Sun 07:05:16 PM 47.2270 -121.9750 260° West 186 214 5,000 -1,333 Descending FlightAware ADS-B
Sun 07:05:34 PM 47.2250 -121.9980 263° West 192 221 4,800 -875 Descending FlightAware ADS-B
Sun 07:06:04 PM 47.2360 -122.0320 295° West 199 229 4,300 -1,102 Descending FlightAware ADS-B
Sun 07:06:23 PM 47.2450 -122.0560 299° West 199 229 3,900 -1,385 Descending FlightAware ADS-B
Sun 07:06:56 PM 47.2680 -122.0830 321° Northwest 202 232 3,100 -1,200 Descending FlightAware ADS-B
Sun 07:07:18 PM 47.2860 -122.0970 332° Northwest 194 223 2,800 -450 Descending FlightAware ADS-B
Sun 07:07:36 PM 47.3000 -122.1090 330° Northwest 177 204 2,800 -714 Level FlightAware ADS-B
Sun 07:08:00 PM 47.3170 -122.1230 331° Northwest 173 199 2,300 -1,250 Descending FlightAware ADS-B
Sun 07:08:24 PM 47.3340 -122.1370 331° Northwest 171 197 1,800 -833 Descending FlightAware ADS-B
Sun 07:08:36 PM 47.3400 -122.1430 326° Northwest 170 196 1,800  Level FlightAware ADS-B
Sun 07:09:12 PM 47.3660 -122.1640 331° Northwest 171 197 1,800  Level FlightAware ADS-B
Sun 07:09:42 PM 47.3860 -122.1820 329° Northwest 172 198 1,800  Level FlightAware ADS-B
Sun 07:10:10 PM 47.4060 -122.1990 330° Northwest 173 199 1,800  Level FlightAware ADS-B
Sun 07:10:34 PM 47.4220 -122.2120 331° Northwest 173 199 1,800 -111 Level FlightAware ADS-B
Sun 07:11:04 PM 47.4430 -122.2310 329° Northwest 169 194 1,700 -444 Descending FlightAware ADS-B
Sun 07:11:28 PM 47.4540 -122.2400 331° Northwest 168 193 1,400 -1,000 Descending FlightAware ADS-B
Sun 07:11:52 PM 47.4750 -122.2570 331° Northwest 160 184 900 -1,000 Descending FlightAware ADS-B
Sun 07:12:22 PM 47.4910 -122.2700 331° Northwest 156 180 500 -818 Descending FlightAware ADS-B
Sun 07:12:36 PM 47.4990 -122.2760 333° Northwest 163 188 300 -293 Descending FlightAware ADS-B
Sun 07:13:44 PM 47.5411 -122.3122 333° Northwest 159 183 100 -176 Descending Seattle Center
Sun 07:15:00 PM 47.5300 -122.3020 180° South  Level Estimated

Login

Don't have an account? Register now (free) for customized features, flight alerts, and more!